createdAt,value
2019-03-06T00:00:52.176Z,1.74
2019-03-06T00:03:24.947Z,1.72
2019-03-06T00:05:56.144Z,1.66
2019-03-06T00:08:27.176Z,1.65
2019-03-06T00:10:58.473Z,1.63
2019-03-06T00:13:33.949Z,1.63
2019-03-06T00:16:06.452Z,1.64
2019-03-06T00:18:37.346Z,1.63
2019-03-06T00:21:08.241Z,1.66
2019-03-06T00:23:41.125Z,1.71
2019-03-06T00:26:15.145Z,1.74
2019-03-06T00:28:46.491Z,1.79
2019-03-06T00:31:18.069Z,1.80
2019-03-06T00:33:49.551Z,1.82
2019-03-06T00:36:28.417Z,1.88
2019-03-06T00:39:01.564Z,1.87
2019-03-06T00:41:47.272Z,1.79
2019-03-06T00:44:18.102Z,1.77
2019-03-06T00:46:48.918Z,1.75
2019-03-06T00:49:19.797Z,1.74
2019-03-06T00:51:50.712Z,1.74
2019-03-06T00:54:21.677Z,1.84
2019-03-06T00:56:54.362Z,1.83
2019-03-06T00:59:25.171Z,1.82
2019-03-06T01:01:56.089Z,1.78
2019-03-06T01:04:26.921Z,1.79
2019-03-06T01:06:57.942Z,1.79
2019-03-06T01:09:31.894Z,1.79
2019-03-06T01:12:03.002Z,1.79
2019-03-06T01:14:33.935Z,1.74
2019-03-06T01:17:05.126Z,1.73
2019-03-06T01:19:35.932Z,1.76
2019-03-06T01:22:14.234Z,1.75
2019-03-06T01:24:45.108Z,1.74
2019-03-06T01:27:16.029Z,1.76
2019-03-06T01:29:46.893Z,1.71
2019-03-06T01:32:17.838Z,1.70
2019-03-06T01:35:27.111Z,1.70
2019-03-06T01:38:24.742Z,1.70
2019-03-06T01:41:03.601Z,1.68
2019-03-06T01:43:44.142Z,1.67
2019-03-06T01:46:14.939Z,1.66
2019-03-06T01:48:46.052Z,1.67
2019-03-06T01:51:17.935Z,1.68
2019-03-06T01:53:49.832Z,1.69
2019-03-06T01:56:20.664Z,1.72
2019-03-06T01:58:51.490Z,1.70
2019-03-06T02:01:22.386Z,1.71
2019-03-06T02:03:53.509Z,1.69
2019-03-06T02:06:24.393Z,1.66
2019-03-06T02:08:55.257Z,1.70
2019-03-06T02:11:27.639Z,1.74
2019-03-06T02:13:58.957Z,1.74
2019-03-06T02:16:29.995Z,1.72
2019-03-06T02:19:00.790Z,1.68
2019-03-06T02:21:31.622Z,1.67
2019-03-06T02:24:02.501Z,1.68
2019-03-06T02:26:35.007Z,1.69
2019-03-06T02:29:05.847Z,1.61
2019-03-06T02:31:37.195Z,1.55
2019-03-06T02:34:08.060Z,1.53
2019-03-06T02:36:39.009Z,1.53
2019-03-06T02:39:09.933Z,1.54
2019-03-06T02:41:41.167Z,1.58
2019-03-06T02:44:12.088Z,1.58
2019-03-06T02:46:42.902Z,1.56
2019-03-06T02:49:14.079Z,1.57
2019-03-06T02:51:44.965Z,1.58
2019-03-06T02:54:15.788Z,1.60
2019-03-06T02:56:46.655Z,1.64
2019-03-06T02:59:45.374Z,1.65
2019-03-06T03:02:36.039Z,1.61
2019-03-06T03:05:23.987Z,1.62
2019-03-06T03:07:55.384Z,1.59
2019-03-06T03:10:26.282Z,1.60
2019-03-06T03:12:58.140Z,1.65
2019-03-06T03:15:28.994Z,1.63
2019-03-06T03:17:59.877Z,1.66
2019-03-06T03:20:30.787Z,1.66
2019-03-06T03:23:01.668Z,1.66
2019-03-06T03:25:33.055Z,1.67
2019-03-06T03:28:04.019Z,1.64
2019-03-06T03:30:35.086Z,1.70
2019-03-06T03:33:06.029Z,1.68
2019-03-06T03:35:36.989Z,1.66
2019-03-06T03:38:10.159Z,1.70
2019-03-06T03:40:41.117Z,1.69
2019-03-06T03:43:12.078Z,1.67
2019-03-06T03:45:45.530Z,1.70
2019-03-06T03:48:16.354Z,1.73
2019-03-06T03:50:47.503Z,1.74
2019-03-06T03:53:18.534Z,1.77
2019-03-06T03:55:49.412Z,1.76
2019-03-06T03:58:20.733Z,1.75
2019-03-06T04:00:51.642Z,1.72
2019-03-06T04:03:22.510Z,1.74
2019-03-06T04:05:53.316Z,1.73
2019-03-06T04:08:24.143Z,1.69
2019-03-06T04:10:55.068Z,1.66
2019-03-06T04:13:25.940Z,1.61
2019-03-06T04:15:56.806Z,1.58
2019-03-06T04:18:27.723Z,1.49
2019-03-06T04:20:58.921Z,1.34
2019-03-06T04:23:29.813Z,1.31
2019-03-06T04:26:00.713Z,1.28
2019-03-06T04:28:31.575Z,1.23
2019-03-06T04:31:02.422Z,1.23
2019-03-06T04:33:33.551Z,1.24
2019-03-06T04:36:04.442Z,1.27
2019-03-06T04:38:35.698Z,1.33
2019-03-06T04:41:06.557Z,1.35
2019-03-06T04:43:37.409Z,1.38
2019-03-06T04:46:08.269Z,1.42
2019-03-06T04:48:40.665Z,1.41
2019-03-06T04:51:13.079Z,1.34
2019-03-06T04:53:44.465Z,1.32
2019-03-06T04:56:18.895Z,1.30
2019-03-06T04:58:49.796Z,1.29
2019-03-06T05:01:20.926Z,1.26
2019-03-06T05:03:51.832Z,1.25
2019-03-06T05:06:22.693Z,1.27
2019-03-06T05:08:53.946Z,1.32
2019-03-06T05:11:24.823Z,1.39
2019-03-06T05:13:55.685Z,1.43
2019-03-06T05:16:45.581Z,1.39
2019-03-06T05:19:16.441Z,1.36
2019-03-06T05:21:47.353Z,1.32
2019-03-06T05:24:18.262Z,1.29
2019-03-06T05:28:02.512Z,1.30
2019-03-06T05:31:19.536Z,1.26
2019-03-06T05:33:56.248Z,1.28
2019-03-06T05:37:05.510Z,1.38
2019-03-06T05:39:41.390Z,1.39
2019-03-06T05:42:12.434Z,1.40
2019-03-06T05:44:43.521Z,1.40
2019-03-06T05:47:30.626Z,1.36
2019-03-06T05:50:01.487Z,1.41
2019-03-06T05:52:33.067Z,1.41
2019-03-06T05:55:03.941Z,1.48
2019-03-06T05:57:35.545Z,1.52
2019-03-06T06:00:08.839Z,1.55
2019-03-06T06:02:40.436Z,1.56
2019-03-06T06:05:28.400Z,1.57
2019-03-06T06:08:21.489Z,1.62
2019-03-06T06:11:01.922Z,1.70
2019-03-06T06:13:32.820Z,1.73
2019-03-06T06:16:03.734Z,1.73
2019-03-06T06:18:34.991Z,1.79
2019-03-06T06:21:23.227Z,1.82
2019-03-06T06:23:57.792Z,1.84
2019-03-06T06:26:29.053Z,1.87
2019-03-06T06:29:03.116Z,1.92
2019-03-06T06:31:33.954Z,1.95
2019-03-06T06:34:06.699Z,2.05
2019-03-06T06:36:37.568Z,2.12
2019-03-06T06:39:08.518Z,2.19
2019-03-06T06:41:39.822Z,2.27
2019-03-06T06:44:10.699Z,2.33
2019-03-06T06:46:41.939Z,2.44
2019-03-06T06:49:12.970Z,2.48
2019-03-06T06:52:22.363Z,2.57
2019-03-06T06:55:52.286Z,2.63
2019-03-06T06:58:43.579Z,2.69
2019-03-06T07:02:30.416Z,2.77
2019-03-06T07:05:33.170Z,2.79
2019-03-06T07:08:32.171Z,2.88
2019-03-06T07:11:21.883Z,2.87
2019-03-06T07:14:23.489Z,2.87
2019-03-06T07:17:16.098Z,2.86
2019-03-06T07:20:11.649Z,2.90
2019-03-06T07:23:11.469Z,3.07
2019-03-06T07:25:57.363Z,3.29
2019-03-06T07:28:46.531Z,3.50
2019-03-06T07:31:43.543Z,3.62
2019-03-06T07:34:54.532Z,3.71
2019-03-06T07:37:46.259Z,3.75
2019-03-06T07:40:24.121Z,3.84
2019-03-06T07:43:02.575Z,3.89
2019-03-06T07:46:05.882Z,3.98
2019-03-06T07:49:12.212Z,4.06
2019-03-06T07:54:56.329Z,4.23
2019-03-06T07:58:17.689Z,4.29
2019-03-06T08:00:49.120Z,4.38
2019-03-06T08:03:46.067Z,4.48
2019-03-06T08:06:16.983Z,4.54
2019-03-06T08:08:55.044Z,4.60
2019-03-06T08:11:33.634Z,4.68
2019-03-06T08:14:23.370Z,4.74
2019-03-06T08:17:15.660Z,4.68
2019-03-06T08:20:21.121Z,4.65
2019-03-06T08:23:10.948Z,4.72
2019-03-06T08:25:48.630Z,4.74
2019-03-06T08:28:25.278Z,4.74
2019-03-06T08:31:15.273Z,4.78
2019-03-06T08:33:46.117Z,4.85
2019-03-06T08:36:18.271Z,4.86
2019-03-06T08:38:55.431Z,4.87
2019-03-06T08:41:26.544Z,4.95
2019-03-06T08:44:02.752Z,5.02
2019-03-06T08:46:55.034Z,5.13
2019-03-06T08:50:00.364Z,5.21
2019-03-06T08:52:58.846Z,5.20
2019-03-06T08:55:46.527Z,5.25
2019-03-06T08:58:45.127Z,5.27
2019-03-06T09:02:00.903Z,5.33
2019-03-06T09:04:53.599Z,5.31
2019-03-06T09:07:47.473Z,5.47
2019-03-06T09:10:46.041Z,5.54
2019-03-06T09:13:44.215Z,5.82
2019-03-06T09:16:35.261Z,5.98
2019-03-06T09:19:31.148Z,6.03
2019-03-06T09:22:23.118Z,5.99
2019-03-06T09:25:05.390Z,6.02
2019-03-06T09:27:43.651Z,6.11
2019-03-06T09:30:31.262Z,6.28
2019-03-06T09:33:11.162Z,6.34
2019-03-06T09:36:10.948Z,6.33
2019-03-06T09:39:13.099Z,6.47
2019-03-06T09:42:04.335Z,6.50
2019-03-06T09:45:09.433Z,6.54
2019-03-06T09:47:59.481Z,6.71
2019-03-06T09:51:17.711Z,7.02
2019-03-06T09:54:20.862Z,7.21
2019-03-06T09:57:17.588Z,7.63
2019-03-06T10:00:10.979Z,7.79
2019-03-06T10:03:06.046Z,8.05
2019-03-06T10:06:03.397Z,8.31
2019-03-06T10:08:47.975Z,8.11
2019-03-06T10:11:42.967Z,8.27
2019-03-06T10:14:33.246Z,8.22
2019-03-06T10:17:19.643Z,8.64
2019-03-06T10:19:56.948Z,9.02
2019-03-06T10:22:29.607Z,8.78
2019-03-06T10:25:01.570Z,8.75
2019-03-06T10:27:36.784Z,9.17
2019-03-06T10:30:10.501Z,9.48
2019-03-06T10:32:41.538Z,9.60
2019-03-06T10:35:15.478Z,9.91
2019-03-06T10:37:46.453Z,9.81
2019-03-06T10:40:18.434Z,9.62
2019-03-06T10:42:49.492Z,9.50
2019-03-06T10:45:20.482Z,9.45
2019-03-06T10:47:53.461Z,9.63
2019-03-06T10:50:26.641Z,9.58
2019-03-06T10:52:57.228Z,9.70
2019-03-06T10:55:28.938Z,9.69
2019-03-06T10:58:00.431Z,10.09
2019-03-06T11:00:34.133Z,10.34
2019-03-06T11:03:07.444Z,10.34
2019-03-06T11:05:42.568Z,10.28
2019-03-06T11:08:16.865Z,10.38
2019-03-06T11:10:48.979Z,10.58
2019-03-06T11:13:21.082Z,10.58
2019-03-06T11:15:56.883Z,10.57
2019-03-06T11:18:29.146Z,10.69
2019-03-06T11:21:03.332Z,10.51
2019-03-06T11:23:43.979Z,10.54
2019-03-06T11:26:21.403Z,10.14
2019-03-06T11:29:14.952Z,10.26
2019-03-06T11:31:57.318Z,10.53
2019-03-06T11:34:28.477Z,10.77
2019-03-06T11:36:59.408Z,10.81
2019-03-06T11:39:30.401Z,10.31
2019-03-06T11:42:07.541Z,10.32
2019-03-06T11:44:41.460Z,10.50
2019-03-06T11:47:12.542Z,10.62
2019-03-06T11:49:47.114Z,10.52
2019-03-06T11:52:18.125Z,10.39
2019-03-06T11:54:50.855Z,10.63
2019-03-06T11:57:22.236Z,10.87
2019-03-06T11:59:55.052Z,11.27
2019-03-06T12:02:25.928Z,11.48
2019-03-06T12:04:57.474Z,11.65
2019-03-06T12:07:35.966Z,11.66
2019-03-06T12:10:10.333Z,11.79
2019-03-06T12:12:56.442Z,11.72
2019-03-06T12:15:31.038Z,11.33
2019-03-06T12:18:01.917Z,11.10
2019-03-06T12:20:35.873Z,11.08
2019-03-06T12:23:07.463Z,11.31
2019-03-06T12:25:40.338Z,11.43
2019-03-06T12:28:14.101Z,11.39
2019-03-06T12:31:02.172Z,11.25
2019-03-06T12:33:33.048Z,11.14
2019-03-06T12:36:11.171Z,11.03
2019-03-06T12:39:00.685Z,10.78
2019-03-06T12:41:19.085Z,10.68
2019-03-06T12:43:53.286Z,10.72
2019-03-06T12:46:35.115Z,10.70
2019-03-06T12:49:20.928Z,10.72
2019-03-06T12:51:54.736Z,10.78
2019-03-06T12:54:26.803Z,10.91
2019-03-06T12:56:59.264Z,11.02
2019-03-06T12:59:33.933Z,11.00
2019-03-06T13:02:04.704Z,11.01
2019-03-06T13:04:41.335Z,11.02
2019-03-06T13:07:18.020Z,11.07
2019-03-06T13:09:50.873Z,11.00
2019-03-06T13:12:24.993Z,10.89
2019-03-06T13:14:56.851Z,10.87
2019-03-06T13:17:29.151Z,10.82
2019-03-06T13:20:00.188Z,10.85
2019-03-06T13:22:33.000Z,10.90
2019-03-06T13:25:03.919Z,10.97
2019-03-06T13:27:34.773Z,11.07
2019-03-06T13:30:06.648Z,11.16
2019-03-06T13:33:08.390Z,11.21
2019-03-06T13:35:39.686Z,11.18
2019-03-06T13:38:11.600Z,11.23
2019-03-06T13:40:42.545Z,11.17
2019-03-06T13:43:13.443Z,11.19
2019-03-06T13:45:50.909Z,11.17
2019-03-06T13:48:22.493Z,11.06
2019-03-06T13:50:55.051Z,11.15
2019-03-06T13:53:27.744Z,11.16
2019-03-06T13:55:58.679Z,11.23
2019-03-06T13:58:29.575Z,11.31
2019-03-06T14:01:00.923Z,11.47
2019-03-06T14:03:34.320Z,11.52
2019-03-06T14:06:05.582Z,11.49
2019-03-06T14:08:37.357Z,11.43
2019-03-06T14:11:09.781Z,11.35
2019-03-06T14:13:40.673Z,11.35
2019-03-06T14:16:11.490Z,11.38
2019-03-06T14:18:42.555Z,11.35
2019-03-06T14:21:13.465Z,11.32
2019-03-06T14:23:44.454Z,11.35
2019-03-06T14:26:15.361Z,11.41
2019-03-06T14:29:22.902Z,11.37
2019-03-06T14:31:54.242Z,11.37
2019-03-06T14:34:26.958Z,11.43
2019-03-06T14:37:06.838Z,11.49
2019-03-06T14:39:43.655Z,11.56
2019-03-06T14:42:14.636Z,11.52
2019-03-06T14:44:46.259Z,11.53
2019-03-06T14:47:17.471Z,11.48
2019-03-06T14:49:52.034Z,11.46
2019-03-06T14:52:23.018Z,11.40
2019-03-06T14:54:56.032Z,11.27
2019-03-06T14:57:27.119Z,11.14
2019-03-06T15:00:11.646Z,10.98
2019-03-06T15:02:58.933Z,10.82
2019-03-06T15:05:30.011Z,10.69
2019-03-06T15:08:02.197Z,10.59
2019-03-06T15:10:42.754Z,10.48
2019-03-06T15:13:08.792Z,10.40
2019-03-06T15:15:44.367Z,10.25
2019-03-06T15:18:15.876Z,10.18
2019-03-06T15:20:46.797Z,10.17
2019-03-06T15:23:17.565Z,10.12
2019-03-06T15:25:48.459Z,10.05
2019-03-06T15:28:22.496Z,10.00
2019-03-06T15:31:00.004Z,9.95
2019-03-06T15:33:48.610Z,9.89
2019-03-06T15:36:24.611Z,9.81
2019-03-06T15:38:56.138Z,9.71
2019-03-06T15:41:27.468Z,9.70
2019-03-06T15:43:59.700Z,9.65
2019-03-06T15:46:30.881Z,9.63
2019-03-06T15:49:03.337Z,9.61
2019-03-06T15:51:38.684Z,9.62
2019-03-06T15:54:12.660Z,9.60
2019-03-06T15:56:52.144Z,9.56
2019-03-06T15:59:24.563Z,9.49
2019-03-06T16:02:05.350Z,9.47
2019-03-06T16:04:38.874Z,9.47
2019-03-06T16:07:22.817Z,9.46
2019-03-06T16:10:23.667Z,9.42
2019-03-06T16:13:10.873Z,9.44
2019-03-06T16:15:45.041Z,9.40
2019-03-06T16:18:20.394Z,9.32
2019-03-06T16:20:51.422Z,9.34
2019-03-06T16:23:24.292Z,9.34
2019-03-06T16:25:59.065Z,9.32
2019-03-06T16:28:32.543Z,9.35
2019-03-06T16:31:03.745Z,9.34
2019-03-06T16:33:50.745Z,9.32
2019-03-06T16:36:21.715Z,9.27
2019-03-06T16:38:55.056Z,9.23
2019-03-06T16:41:29.145Z,9.21
2019-03-06T16:44:04.773Z,9.18
2019-03-06T16:46:38.682Z,9.20
2019-03-06T16:49:15.675Z,9.19
2019-03-06T16:51:46.960Z,9.12
2019-03-06T16:54:19.964Z,9.14
2019-03-06T16:56:54.019Z,9.14
2019-03-06T16:59:27.519Z,9.10
2019-03-06T17:02:06.590Z,9.11
2019-03-06T17:04:43.829Z,9.09
2019-03-06T17:07:18.464Z,9.09
2019-03-06T17:09:49.915Z,9.07
2019-03-06T17:12:21.211Z,9.04
2019-03-06T17:14:54.094Z,9.06
2019-03-06T17:17:25.051Z,9.07
2019-03-06T17:19:57.620Z,9.09
2019-03-06T17:22:35.216Z,9.10
2019-03-06T17:25:06.575Z,9.08
2019-03-06T17:27:52.361Z,9.07
2019-03-06T17:30:40.945Z,9.05
2019-03-06T17:33:34.247Z,9.06
2019-03-06T17:36:05.392Z,9.08
2019-03-06T17:38:38.571Z,8.99
2019-03-06T17:41:10.167Z,8.98
2019-03-06T17:43:50.890Z,8.96
2019-03-06T17:46:24.139Z,8.94
2019-03-06T17:49:01.292Z,8.95
2019-03-06T17:51:32.793Z,8.96
2019-03-06T17:54:03.869Z,8.95
2019-03-06T17:56:36.456Z,8.92
2019-03-06T17:59:07.884Z,8.96
2019-03-06T18:01:42.783Z,8.93
2019-03-06T18:04:27.809Z,8.90
2019-03-06T18:07:00.173Z,8.92
2019-03-06T18:09:31.597Z,8.87
2019-03-06T18:12:06.509Z,8.84
2019-03-06T18:14:39.487Z,8.83
2019-03-06T18:17:12.283Z,8.82
2019-03-06T18:19:51.592Z,8.83
2019-03-06T18:22:25.258Z,8.84
2019-03-06T18:25:01.727Z,8.82
2019-03-06T18:27:36.660Z,8.81
2019-03-06T18:30:09.228Z,8.76
2019-03-06T18:32:43.719Z,8.73
2019-03-06T18:35:16.659Z,8.76
2019-03-06T18:37:48.545Z,8.75
2019-03-06T18:40:20.514Z,8.78
2019-03-06T18:42:54.901Z,8.74
2019-03-06T18:45:26.485Z,8.76
2019-03-06T18:47:58.433Z,8.73
2019-03-06T18:50:36.535Z,8.76
2019-03-06T18:53:08.155Z,8.78
2019-03-06T18:55:56.165Z,8.76
2019-03-06T18:58:24.311Z,8.75
2019-03-06T19:01:01.063Z,8.74
2019-03-06T19:03:43.953Z,8.72
2019-03-06T19:06:17.036Z,8.75
2019-03-06T19:08:48.617Z,8.75
2019-03-06T19:11:24.955Z,8.79
2019-03-06T19:14:05.599Z,8.76
2019-03-06T19:16:40.354Z,8.73
2019-03-06T19:19:14.792Z,8.69
2019-03-06T19:21:47.462Z,8.68
2019-03-06T19:24:30.420Z,8.64
2019-03-06T19:27:07.316Z,8.64
2019-03-06T19:29:38.940Z,8.57
2019-03-06T19:32:11.980Z,8.54
2019-03-06T19:34:49.726Z,8.50
2019-03-06T19:37:26.753Z,8.48
2019-03-06T19:40:09.439Z,8.40
2019-03-06T19:42:44.015Z,8.37
2019-03-06T19:45:20.243Z,8.38
2019-03-06T19:47:59.540Z,8.33
2019-03-06T19:50:37.012Z,8.25
2019-03-06T19:53:16.742Z,8.21
2019-03-06T19:55:54.749Z,8.23
2019-03-06T19:58:29.753Z,8.08
2019-03-06T20:01:06.748Z,8.01
2019-03-06T20:03:38.234Z,8.04
2019-03-06T20:06:26.579Z,8.12
2019-03-06T20:08:50.679Z,8.12
2019-03-06T20:11:22.748Z,8.15
2019-03-06T20:13:54.153Z,8.15
2019-03-06T20:16:25.748Z,8.12
2019-03-06T20:18:57.542Z,8.14
2019-03-06T20:21:43.699Z,8.10
2019-03-06T20:24:21.618Z,8.13
2019-03-06T20:26:55.608Z,8.12
2019-03-06T20:29:36.966Z,8.16
2019-03-06T20:32:09.880Z,8.17
2019-03-06T20:34:46.181Z,8.22
2019-03-06T20:37:17.590Z,8.24
2019-03-06T20:39:49.341Z,8.26
2019-03-06T20:42:20.725Z,8.29
2019-03-06T20:44:55.940Z,8.38
2019-03-06T20:47:29.484Z,8.37
2019-03-06T20:50:01.056Z,8.36
2019-03-06T20:52:34.408Z,8.39
2019-03-06T20:55:06.075Z,8.44
2019-03-06T20:57:37.953Z,8.43
2019-03-06T21:00:23.340Z,8.44
2019-03-06T21:02:58.353Z,8.41
2019-03-06T21:05:29.848Z,8.33
2019-03-06T21:08:01.330Z,8.29
2019-03-06T21:10:33.124Z,8.28
2019-03-06T21:13:13.988Z,8.24
2019-03-06T21:15:50.216Z,8.19
2019-03-06T21:18:24.942Z,8.13
2019-03-06T21:21:25.070Z,8.11
2019-03-06T21:24:02.663Z,8.13
2019-03-06T21:26:39.131Z,8.07
2019-03-06T21:29:13.682Z,8.04
2019-03-06T21:31:45.490Z,8.04
2019-03-06T21:34:27.785Z,8.06
2019-03-06T21:37:04.669Z,8.01
2019-03-06T21:39:36.690Z,7.98
2019-03-06T21:42:29.923Z,7.89
2019-03-06T21:45:01.389Z,7.85
2019-03-06T21:47:33.233Z,7.80
2019-03-06T21:50:04.664Z,7.78
2019-03-06T21:52:39.704Z,7.75
2019-03-06T21:55:12.868Z,7.69
2019-03-06T21:57:49.848Z,7.67
2019-03-06T22:00:21.778Z,7.80
2019-03-06T22:02:59.253Z,7.81
2019-03-06T22:05:39.213Z,7.80
2019-03-06T22:08:10.387Z,7.79
2019-03-06T22:10:44.471Z,7.80
2019-03-06T22:13:18.968Z,7.78
2019-03-06T22:15:49.801Z,7.77
2019-03-06T22:18:20.595Z,7.72
2019-03-06T22:20:51.384Z,7.70
2019-03-06T22:23:22.615Z,7.66
2019-03-06T22:25:53.460Z,7.68
2019-03-06T22:28:24.413Z,7.69
2019-03-06T22:30:55.719Z,7.70
2019-03-06T22:33:26.553Z,7.75
2019-03-06T22:35:57.400Z,7.79
2019-03-06T22:38:29.033Z,7.82
2019-03-06T22:41:00.402Z,7.85
2019-03-06T22:43:31.529Z,7.86
2019-03-06T22:46:03.048Z,7.91
2019-03-06T22:48:38.743Z,7.95
2019-03-06T22:51:11.023Z,8.02
2019-03-06T22:53:41.870Z,8.04
2019-03-06T22:56:12.774Z,8.02
2019-03-06T22:58:50.564Z,8.04
2019-03-06T23:01:34.176Z,8.07
2019-03-06T23:04:10.614Z,8.12
2019-03-06T23:06:42.445Z,8.14
2019-03-06T23:09:14.250Z,8.18
2019-03-06T23:11:45.500Z,8.22
2019-03-06T23:14:16.991Z,8.24
2019-03-06T23:16:47.861Z,8.23
2019-03-06T23:19:18.971Z,8.17
2019-03-06T23:21:49.843Z,8.12
2019-03-06T23:24:20.585Z,8.08
2019-03-06T23:26:52.388Z,8.04
2019-03-06T23:29:24.065Z,7.99
2019-03-06T23:31:55.941Z,7.97
2019-03-06T23:34:27.252Z,7.98
2019-03-06T23:36:59.677Z,7.96
2019-03-06T23:39:30.909Z,7.96
2019-03-06T23:42:03.571Z,8.02
2019-03-06T23:44:34.395Z,8.06
2019-03-06T23:47:05.298Z,8.04
2019-03-06T23:49:37.873Z,8.03
2019-03-06T23:52:26.678Z,8.02
2019-03-06T23:54:57.592Z,8.04
2019-03-06T23:57:33.337Z,8.19
